Home > Products > Valid Products > TAF

000
FTUS45 KFGZ 262330 AAA
TAFFLG
TAF AMD
KFLG 262330Z 2700/2724 VRB08G15KT P6SM -SHRA BKN070 OVC100
     FM270300 24005KT P6SM SCT080 BKN100
     FM270900 23006KT P6SM FEW070
     FM271800 24010G15KT P6SM SCT060 OVC090 PROB30 2718/2724 P6SM
      -TSRA BKN050CB=



000
FTUS45 KFGZ 262329 AAA
TAFPGA
TAF AMD
KPGA 262329Z 2623/2724 VRB10G15KT P6SM VCSH SCT090 BKN120
     FM270300 VRB06KT P6SM SCT120=



000
FTUS45 KFGZ 262327 AAA
TAFINW
TAF AMD
KINW 262327Z 2623/2724 27015G25KT P6SM FEW090
     FM270300 23010KT P6SM FEW080
     FM270900 VRB05KT P6SM FEW080
     FM271900 27010G15KT P6SM FEW080 SCT150=



000
FTUS45 KFGZ 262231 AAC
TAFPGA
TAF AMD
KPGA 262231Z 2623/2718 VRB12G20KT P6SM VCSH SCT090 BKN120=



000
FTUS45 KFGZ 262053 AAA
TAFPGA
TAF AMD
KPGA 262053Z 2621/2718 VRB06KT P6SM SCT090 BKN120
      TEMPO 2621/2623 VRB15G30KT P6SM -TSRA BKN070CB=



000
FTUS45 KFGZ 261135
TAFFLG
TAF
KFLG 261135Z 2612/2712 VRB03KT P6SM SCT100
      TEMPO 2614/2618 -SHRA BKN060
     FM261800 24012G20KT P6SM BKN070 OVC100
      TEMPO 2619/2623 P6SM -TSRA BKN050CB
     FM270300 VRB03KT P6SM SCT100=



000
FTUS45 KFGZ 252320
TAFFLG
TAF
KFLG 252320Z 2600/2624 22016G26KT P6SM SKC
     FM260300 VRB05KT P6SM SCT040
     FM261800 24012G20KT P6SM BKN070 OVC100 PROB30 2619/2624 P6SM
      -TSRA BKN050CB=



000
FTUS45 KFGZ 252320
TAFINW
TAF
KINW 252320Z 2600/2624 20018G28KT P6SM SKC
     FM260300 18008KT P6SM SKC
     FM261200 20010KT P6SM SCT070 BKN120
     FM261800 26014G24KT P6SM SCT090=



000
FTUS45 KFGZ 252320
TAFPGA
TAF
KPGA 252320Z 2600/2624 23010G20KT P6SM FEW100 SCT150
     FM260200 VRB05KT P6SM SCT100
     FM261800 31008KT P6SM SCT090 BKN150=



000
FTUS45 KFGZ 251805 AAA
TAFPGA
TAF AMD
KPGA 251805Z 2518/2618 VRB06KT P6SM SKC
     FM252100 23010G20KT P6SM SKC
     FM260200 VRB05KT P6SM BKN100=



000
FTUS45 KFGZ 251804 AAA
TAFINW
TAF AMD
KINW 251804Z 2518/2618 VRB06KT P6SM SKC
     FM252100 20018G28KT P6SM SKC
     FM260300 18008KT P6SM SKC
     FM261200 20010KT P6SM BKN050=



000
FTUS45 KFGZ 251120
TAFFLG
TAF
KFLG 251120Z 2512/2612 22009KT P6SM SKC
     FM251800 22016G26KT P6SM SCT080
     FM260300 VRB05KT P6SM SKC=



000
FTUS45 KFGZ 251120
TAFPGA
TAF
KPGA 251120Z 2512/2612 25006KT P6SM FEW100
     FM251800 23010G20KT P6SM SCT100
     FM260300 VRB03KT P6SM SKC=



000
FTUS45 KFGZ 251120
TAFINW
TAF
KINW 251120Z 2512/2612 VRB06KT P6SM SKC
     FM251800 20018G28KT P6SM FEW100
     FM260300 VRB05KT P6SM SKC=



000
FTUS45 KFGZ 242320
TAFFLG
TAF
KFLG 242320Z 2500/2524 22020G32KT P6SM SCT080
     FM250200 23011KT P6SM SKC
     FM250400 22007KT P6SM SKC
     FM251800 22016G26KT P6SM SCT080=



000
FTUS45 KFGZ 242320
TAFINW
TAF
KINW 242320Z 2500/2524 21022G32KT P6SM FEW100
     FM250300 22013KT P6SM SKC
     FM250800 14007KT P6SM SKC
     FM251800 20018G28KT P6SM FEW100=



000
FTUS45 KFGZ 242320
TAFPGA
TAF
KPGA 242320Z 2500/2524 23012G20KT P6SM FEW080 SCT100
     FM250300 25006KT P6SM FEW100
     FM251900 30010G18KT P6SM SCT100=



000
FTUS45 KFGZ 242008 AAA
TAFFLG
TAF AMD
KFLG 242008Z 2420/2518 23022G33KT P6SM FEW060 SCT080
     FM250200 23011KT P6SM SKC
     FM250400 22007KT P6SM SKC
     FM251700 22014G26KT P6SM SCT080=



000
FTUS45 KFGZ 241730
TAFINW
TAF
KINW 241730Z 2418/2518 23018G31KT P6SM SKC
     FM250230 22013KT P6SM SKC
     FM250800 14007KT P6SM SKC=



000
FTUS45 KFGZ 241730
TAFPGA
TAF
KPGA 241730Z 2418/2518 22011G18KT P6SM FEW080 SCT100
     FM250300 25006KT P6SM FEW100=



000
FTUS45 KFGZ 241730
TAFFLG
TAF
KFLG 241730Z 2418/2518 23017G30KT P6SM FEW060 SCT080
     FM250200 23011KT P6SM SKC
     FM250400 22007KT P6SM SKC
     FM251700 22014G26KT P6SM SCT080=



000
FTUS45 KFGZ 241120
TAFPGA
TAF
KPGA 241120Z 2412/2512 VRB06KT P6SM SCT250
     FM241700 22012G22KT P6SM SCT090
     FM250500 23008KT P6SM SKC=



000
FTUS45 KFGZ 241120
TAFFLG
TAF
KFLG 241120Z 2412/2512 VRB06KT P6SM SKC
     FM241600 21020G30KT P6SM SKC
     FM250300 23006KT P6SM SKC=



000
FTUS45 KFGZ 241120
TAFINW
TAF
KINW 241120Z 2412/2512 20006KT P6SM SKC
     FM241600 21020G30KT P6SM SKC
     FM250400 20006KT P6SM SKC=



000
FTUS45 KFGZ 240527
TAFFLG
TAF
KFLG 240527Z 2406/2506 22006KT P6SM SKC
      TEMPO 2415/2418 21013G22KT
     FM241800 22021G31KT P6SM FEW070
     FM250400 23008KT P6SM SKC=



000
FTUS45 KFGZ 240527
TAFPGA
TAF
KPGA 240527Z 2406/2506 VRB06KT P6SM SCT250
     FM241700 20011G17KT P6SM FEW090
     FM242000 22015G24KT P6SM SCT090
     FM250500 24010KT P6SM SKC=



000
FTUS45 KFGZ 240527
TAFINW
TAF
KINW 240527Z 2406/2506 20006KT P6SM SKC
      TEMPO 2415/2418 17013G22KT
     FM241800 21021G31KT P6SM SKC
     FM250400 19008KT P6SM SKC=



    US Dept of Commerce
    National Oceanic and Atmospheric Administration
    National Weather Service
    1325 East West Highway
    Silver Spring, MD 20910
    Page Author: NWS Internet Services Team
Disclaimer
Information Quality
Credits
Glossary
Privacy Policy
Freedom of Information Act (FOIA)
About Us
Career Opportunities